Overview Statistics Trail Chart Weather Telemetry Raw packets
 

This is the latest recevied weather packets stored in our database for station/object OE6JVE-13. If no packets are shown the sender has not sent any weather packets the latest 10 day(s).

<< 34 35 36 37 38 39 40 >>
Time Temp. Humidity Pressure Rain* Wind** Luminosity Snow
1788113467 20.56° C 77% 1007.2 hPa 0 mm - - -
1788112875 20.56° C 77% 1007.1 hPa 0 mm - - -
1788112217 21.11° C 76% 1007 hPa 0 mm - - -
1788111625 21.11° C 75% 1006.8 hPa 0 mm - - -
1788111035 21.67° C 73% 1006.8 hPa 0 mm - - -
1788110440 22.22° C 71% 1006.7 hPa 0 mm - - -
1788109848 22.78° C 69% 1006.7 hPa 0 mm - - -
1788109257 22.78° C 67% 1006.7 hPa 0 mm - - -
1788108679 23.33° C 65% 1006.7 hPa 0 mm - - -
1788108072 23.89° C 64% 1006.6 hPa 0 mm - - -
1788107480 23.89° C 63% 1006.7 hPa 0 mm - - -
1788106822 24.44° C 62% 1006.6 hPa 0 mm - - -
1788106231 25° C 59% 1006.6 hPa 0 mm - - -
1788105638 25° C 59% 1006.7 hPa 0 mm - - -
1788105046 26.11° C 56% 1006.7 hPa 0 mm - - -
1788104454 27.22° C 48% 1006.7 hPa 0 mm - - -
1788103862 27.78° C 45% 1006.7 hPa 0 mm - - -
1788103270 28.89° C 43% 1006.6 hPa 0 mm - - -
1788102678 29.44° C 41% 1006.6 hPa 0 mm - - -
1788102020 30° C 40% 1006.5 hPa 0 mm - - -
1788101429 30° C 40% 1006.5 hPa 0 mm - - -
1788100835 31.11° C 36% 1006.6 hPa 0 mm - - -
1788100243 30.56° C 37% 1006.7 hPa 0 mm - - -
1788099668 30.56° C 36% 1006.7 hPa 0 mm - - -
1788099058 31.11° C 36% 1006.8 hPa 0 mm - - -

* Rain latest hour (hover to see other rain measurements)
** Current wind speed in m/s (hover to see current wind gust speed)